createdAt,value
2022-11-04T00:00:19.470Z,15.32
2022-11-04T00:02:46.128Z,15.30
2022-11-04T00:05:16.850Z,15.29
2022-11-04T00:08:02.020Z,15.26
2022-11-04T00:10:48.495Z,15.23
2022-11-04T00:13:14.976Z,15.20
2022-11-04T00:16:04.306Z,15.15
2022-11-04T00:18:30.944Z,15.09
2022-11-04T00:21:15.793Z,15.03
2022-11-04T00:24:00.937Z,14.98
2022-11-04T00:26:47.484Z,14.91
2022-11-04T00:29:13.959Z,14.88
2022-11-04T00:31:59.178Z,14.85
2022-11-04T00:34:27.398Z,14.83
2022-11-04T00:36:53.892Z,14.81
2022-11-04T00:39:20.412Z,14.79
2022-11-04T00:41:46.879Z,14.79
2022-11-04T00:44:15.357Z,14.83
2022-11-04T00:46:41.836Z,14.85
2022-11-04T00:49:08.342Z,14.83
2022-11-04T00:51:34.903Z,14.83
2022-11-04T00:54:01.460Z,14.84
2022-11-04T00:56:27.984Z,14.82
2022-11-04T00:58:54.602Z,14.79
2022-11-04T01:01:22.185Z,14.79
2022-11-04T01:03:51.132Z,14.79
2022-11-04T01:06:20.713Z,14.78
2022-11-04T01:08:47.460Z,14.74
2022-11-04T01:11:15.578Z,14.72
2022-11-04T01:13:42.117Z,14.68
2022-11-04T01:16:11.957Z,14.63
2022-11-04T01:18:39.294Z,14.59
2022-11-04T01:21:07.550Z,14.58
2022-11-04T01:23:35.256Z,14.57
2022-11-04T01:26:04.441Z,14.55
2022-11-04T01:28:30.920Z,14.53
2022-11-04T01:30:57.424Z,14.53
2022-11-04T01:33:24.921Z,14.53
2022-11-04T01:35:51.733Z,14.52
2022-11-04T01:38:18.192Z,14.51
2022-11-04T01:40:44.691Z,14.52
2022-11-04T01:43:19.366Z,14.52
2022-11-04T01:45:58.593Z,14.54
2022-11-04T01:48:35.124Z,14.56
2022-11-04T01:51:01.909Z,14.56
2022-11-04T01:53:32.662Z,14.57
2022-11-04T01:56:03.577Z,14.58
2022-11-04T01:58:34.589Z,14.59
2022-11-04T02:01:01.852Z,14.59
2022-11-04T02:03:38.578Z,14.60
2022-11-04T02:06:09.603Z,14.63
2022-11-04T02:08:38.025Z,14.60
2022-11-04T02:11:04.639Z,14.58
2022-11-04T02:13:33.677Z,14.58
2022-11-04T02:16:18.735Z,14.58
2022-11-04T02:18:45.237Z,14.59
2022-11-04T02:21:23.832Z,14.58
2022-11-04T02:24:35.677Z,14.57
2022-11-04T02:27:08.127Z,14.58
2022-11-04T02:29:46.257Z,14.55
2022-11-04T02:32:23.962Z,14.52
2022-11-04T02:35:24.575Z,14.49
2022-11-04T02:37:57.607Z,14.46
2022-11-04T02:40:39.751Z,14.42
2022-11-04T02:43:15.445Z,14.41
2022-11-04T02:45:48.055Z,14.38
2022-11-04T02:48:28.997Z,14.35
2022-11-04T02:51:12.069Z,14.28
2022-11-04T02:53:49.993Z,14.22
2022-11-04T02:56:21.331Z,14.17
2022-11-04T02:58:54.849Z,14.15
2022-11-04T03:01:24.685Z,14.14
2022-11-04T03:03:59.925Z,14.14
2022-11-04T03:06:29.549Z,14.13
2022-11-04T03:08:58.152Z,14.13
2022-11-04T03:11:27.449Z,14.11
2022-11-04T03:13:59.961Z,14.08
2022-11-04T03:16:41.075Z,14.08
2022-11-04T03:19:16.137Z,14.06
2022-11-04T03:21:58.066Z,14.04
2022-11-04T03:24:29.797Z,14.03
2022-11-04T03:27:04.053Z,14.00
2022-11-04T03:29:30.487Z,14.01
2022-11-04T03:32:02.343Z,14.00
2022-11-04T03:34:33.327Z,13.99
2022-11-04T03:37:00.154Z,13.95
2022-11-04T03:39:26.947Z,13.92
2022-11-04T03:41:59.252Z,13.90
2022-11-04T03:44:27.051Z,13.86
2022-11-04T03:46:54.646Z,13.82
2022-11-04T03:49:23.232Z,13.78
2022-11-04T03:51:52.992Z,13.68
2022-11-04T03:54:21.266Z,13.62
2022-11-04T03:57:25.949Z,13.58
2022-11-04T04:00:07.047Z,13.55
2022-11-04T04:02:36.332Z,13.51
2022-11-04T04:05:20.711Z,13.48
2022-11-04T04:07:59.092Z,13.45
2022-11-04T04:10:39.327Z,13.42
2022-11-04T04:13:15.008Z,13.36
2022-11-04T04:16:03.281Z,13.33
2022-11-04T04:18:55.669Z,13.31
2022-11-04T04:21:31.898Z,13.29
2022-11-04T04:24:22.696Z,13.29
2022-11-04T04:27:09.545Z,13.30
2022-11-04T04:29:37.614Z,13.29
2022-11-04T04:32:05.757Z,13.31
2022-11-04T04:34:34.376Z,13.32
2022-11-04T04:37:00.768Z,13.33
2022-11-04T04:40:02.997Z,13.33
2022-11-04T04:42:52.908Z,13.30
2022-11-04T04:45:32.455Z,13.28
2022-11-04T04:47:59.535Z,13.27
2022-11-04T04:50:28.909Z,13.23
2022-11-04T04:52:58.345Z,13.21
2022-11-04T04:55:25.246Z,13.17
2022-11-04T04:57:51.710Z,13.14
2022-11-04T05:00:20.902Z,13.12
2022-11-04T05:02:49.279Z,13.10
2022-11-04T05:05:18.033Z,13.07
2022-11-04T05:07:45.084Z,13.06
2022-11-04T05:10:13.305Z,13.07
2022-11-04T05:12:58.936Z,13.04
2022-11-04T05:15:31.161Z,13.02
2022-11-04T05:17:59.481Z,12.98
2022-11-04T05:20:26.833Z,12.96
2022-11-04T05:22:54.468Z,12.91
2022-11-04T05:25:22.153Z,12.88
2022-11-04T05:27:48.652Z,12.84
2022-11-04T05:30:15.137Z,12.80
2022-11-04T05:32:41.603Z,12.77
2022-11-04T05:35:08.716Z,12.76
2022-11-04T05:37:35.248Z,12.77
2022-11-04T05:40:01.727Z,12.78
2022-11-04T05:42:29.475Z,12.79
2022-11-04T05:44:59.962Z,12.80
2022-11-04T05:47:26.476Z,12.81
2022-11-04T05:49:53.065Z,12.81
2022-11-04T05:52:19.565Z,12.76
2022-11-04T05:54:50.565Z,12.68
2022-11-04T05:57:17.038Z,12.63
2022-11-04T05:59:43.521Z,12.58
2022-11-04T06:02:10.170Z,12.52
2022-11-04T06:04:38.494Z,12.47
2022-11-04T06:07:05.024Z,12.44
2022-11-04T06:09:40.295Z,12.43
2022-11-04T06:12:07.816Z,12.43
2022-11-04T06:14:35.290Z,12.42
2022-11-04T06:17:02.218Z,12.40
2022-11-04T06:19:28.861Z,12.41
2022-11-04T06:21:55.418Z,12.43
2022-11-04T06:24:26.396Z,12.44
2022-11-04T06:26:52.914Z,12.44
2022-11-04T06:29:19.442Z,12.44
2022-11-04T06:31:45.956Z,12.45
2022-11-04T06:34:16.742Z,12.43
2022-11-04T06:36:43.231Z,12.40
2022-11-04T06:39:09.817Z,12.37
2022-11-04T06:41:36.998Z,12.36
2022-11-04T06:44:03.592Z,12.34
2022-11-04T06:46:37.600Z,12.32
2022-11-04T06:49:05.928Z,12.28
2022-11-04T06:51:33.360Z,12.25
2022-11-04T06:53:59.872Z,12.24
2022-11-04T06:56:26.472Z,12.23
2022-11-04T06:58:54.400Z,12.22
2022-11-04T07:01:22.969Z,12.22
2022-11-04T07:03:54.531Z,12.21
2022-11-04T07:06:23.484Z,12.23
2022-11-04T07:08:52.576Z,12.25
2022-11-04T07:11:21.481Z,12.28
2022-11-04T07:13:49.230Z,12.29
2022-11-04T07:16:17.240Z,12.33
2022-11-04T07:18:43.928Z,12.39
2022-11-04T07:21:11.596Z,12.43
2022-11-04T07:23:38.585Z,12.49
2022-11-04T07:26:07.239Z,12.54
2022-11-04T07:28:35.125Z,12.61
2022-11-04T07:31:03.819Z,12.69
2022-11-04T07:33:30.593Z,12.76
2022-11-04T07:35:58.481Z,12.82
2022-11-04T07:38:25.708Z,12.87
2022-11-04T07:40:52.250Z,12.91
2022-11-04T07:43:18.734Z,12.95
2022-11-04T07:46:06.974Z,13.01
2022-11-04T07:48:33.616Z,13.08
2022-11-04T07:51:01.379Z,13.15
2022-11-04T07:53:29.484Z,13.21
2022-11-04T07:55:58.110Z,13.30
2022-11-04T07:58:25.676Z,13.42
2022-11-04T08:00:58.412Z,13.53
2022-11-04T08:03:24.871Z,13.62
2022-11-04T08:05:59.172Z,13.69
2022-11-04T08:08:26.546Z,13.74
2022-11-04T08:11:01.407Z,13.75
2022-11-04T08:13:33.101Z,13.80
2022-11-04T08:16:07.801Z,13.85
2022-11-04T08:18:34.349Z,13.91
2022-11-04T08:21:02.360Z,13.98
2022-11-04T08:23:29.148Z,14.03
2022-11-04T08:25:56.254Z,14.08
2022-11-04T08:28:24.174Z,14.12
2022-11-04T08:30:56.691Z,14.18
2022-11-04T08:33:25.087Z,14.24
2022-11-04T08:35:54.742Z,14.32
2022-11-04T08:38:21.696Z,14.39
2022-11-04T08:40:48.266Z,14.43
2022-11-04T08:43:14.788Z,14.48
2022-11-04T08:45:45.235Z,14.50
2022-11-04T08:48:13.259Z,14.53
2022-11-04T08:50:40.291Z,14.57
2022-11-04T08:53:07.118Z,14.59
2022-11-04T08:55:36.158Z,14.60
2022-11-04T08:58:02.678Z,14.61
2022-11-04T09:00:29.489Z,14.65
2022-11-04T09:02:56.034Z,14.68
2022-11-04T09:05:22.787Z,14.71
2022-11-04T09:07:49.477Z,14.75
2022-11-04T09:10:17.227Z,14.79
2022-11-04T09:12:44.698Z,14.82
2022-11-04T09:15:13.334Z,14.86
2022-11-04T09:17:40.491Z,14.89
2022-11-04T09:20:07.980Z,14.94
2022-11-04T09:22:34.452Z,14.98
2022-11-04T09:25:02.165Z,15.01
2022-11-04T09:27:29.211Z,15.03
2022-11-04T09:29:55.676Z,15.04
2022-11-04T09:32:22.171Z,15.05
2022-11-04T09:34:52.737Z,15.06
2022-11-04T09:37:19.267Z,15.07
2022-11-04T09:39:48.879Z,15.11
2022-11-04T09:42:27.322Z,15.16
2022-11-04T09:45:20.709Z,15.17
2022-11-04T09:47:50.756Z,15.19
2022-11-04T09:50:25.699Z,15.22
2022-11-04T09:53:01.755Z,15.26
2022-11-04T09:55:34.985Z,15.33
2022-11-04T09:58:01.705Z,15.36
2022-11-04T10:00:36.618Z,15.40
2022-11-04T10:03:09.279Z,15.47
2022-11-04T10:05:57.439Z,15.51
2022-11-04T10:08:45.168Z,15.55
2022-11-04T10:11:17.725Z,15.60
2022-11-04T10:13:57.795Z,15.64
2022-11-04T10:16:36.319Z,15.70
2022-11-04T10:19:09.165Z,15.76
2022-11-04T10:22:02.097Z,15.79
2022-11-04T10:24:41.750Z,15.83
2022-11-04T10:27:22.568Z,15.85
2022-11-04T10:29:54.933Z,15.86
2022-11-04T10:32:28.396Z,15.83
2022-11-04T10:35:04.382Z,15.86
2022-11-04T10:37:31.201Z,15.94
2022-11-04T10:40:36.451Z,16.03
2022-11-04T10:43:09.783Z,16.16
2022-11-04T10:45:48.992Z,16.24
2022-11-04T10:48:32.227Z,16.32
2022-11-04T10:50:59.870Z,16.40
2022-11-04T10:53:29.548Z,16.46
2022-11-04T10:56:37.622Z,16.55
2022-11-04T10:59:23.192Z,16.65
2022-11-04T11:01:53.115Z,16.72
2022-11-04T11:04:35.809Z,16.81
2022-11-04T11:07:05.803Z,16.96
2022-11-04T11:09:35.859Z,17.10
2022-11-04T11:12:29.470Z,17.19
2022-11-04T11:14:53.412Z,17.27
2022-11-04T11:17:26.065Z,17.35
2022-11-04T11:19:59.069Z,17.44
2022-11-04T11:22:38.064Z,17.50
2022-11-04T11:25:23.378Z,17.57
2022-11-04T11:28:00.324Z,17.70
2022-11-04T11:30:34.276Z,17.85
2022-11-04T11:33:05.095Z,17.91
2022-11-04T11:35:45.546Z,17.91
2022-11-04T11:38:24.160Z,17.90
2022-11-04T11:41:23.454Z,17.93
2022-11-04T11:43:45.721Z,17.95
2022-11-04T11:46:13.583Z,17.97
2022-11-04T11:48:43.103Z,18.00
2022-11-04T11:51:14.044Z,18.04
2022-11-04T11:53:57.539Z,18.05
2022-11-04T11:57:07.209Z,18.10
2022-11-04T12:02:52.097Z,18.09
2022-11-04T12:11:36.209Z,18.05
2022-11-04T12:14:28.401Z,18.00
2022-11-04T12:17:31.964Z,17.96
2022-11-04T12:20:24.883Z,17.95
2022-11-04T12:23:04.570Z,17.94
2022-11-04T12:25:45.014Z,17.97
2022-11-04T12:28:36.459Z,17.95
2022-11-04T12:31:31.264Z,17.97
2022-11-04T12:34:30.046Z,18.01
2022-11-04T12:37:08.987Z,18.02
2022-11-04T12:40:04.618Z,18.03
2022-11-04T12:42:42.800Z,18.07
2022-11-04T12:45:30.086Z,18.10
2022-11-04T12:48:05.953Z,18.16
2022-11-04T12:50:47.713Z,18.20
2022-11-04T12:53:44.875Z,18.23
2022-11-04T12:56:19.219Z,18.24
2022-11-04T12:58:48.661Z,18.16
2022-11-04T13:01:20.708Z,18.11
2022-11-04T13:04:04.543Z,18.12
2022-11-04T13:06:46.518Z,18.14
2022-11-04T13:09:45.229Z,18.17
2022-11-04T13:12:35.171Z,18.19
2022-11-04T13:15:07.908Z,18.22
2022-11-04T13:17:40.168Z,18.16
2022-11-04T13:20:15.523Z,18.15
2022-11-04T13:22:49.816Z,18.12
2022-11-04T13:25:28.003Z,18.15
2022-11-04T13:27:54.648Z,18.12
2022-11-04T13:30:40.260Z,18.07
2022-11-04T13:33:37.852Z,18.07
2022-11-04T13:36:28.525Z,18.10
2022-11-04T13:39:00.693Z,18.10
2022-11-04T13:41:45.265Z,18.10
2022-11-04T13:44:24.509Z,18.12
2022-11-04T13:46:54.351Z,18.14
2022-11-04T13:49:37.470Z,18.12
2022-11-04T13:52:07.039Z,18.10
2022-11-04T13:54:54.889Z,18.09
2022-11-04T13:57:30.106Z,18.08
2022-11-04T14:00:09.109Z,18.02
2022-11-04T14:02:39.059Z,17.96
2022-11-04T14:05:23.687Z,17.88
2022-11-04T14:08:00.655Z,17.82
2022-11-04T14:10:56.509Z,17.72
2022-11-04T14:13:34.104Z,17.69
2022-11-04T14:16:03.673Z,17.68
2022-11-04T14:18:33.395Z,17.67
2022-11-04T14:21:08.836Z,17.66
2022-11-04T14:23:37.402Z,17.66
2022-11-04T14:26:13.591Z,17.66
2022-11-04T14:28:44.186Z,17.67
2022-11-04T14:31:17.694Z,17.64
2022-11-04T14:33:56.128Z,17.61
2022-11-04T14:36:41.761Z,17.60
2022-11-04T14:39:11.271Z,17.56
2022-11-04T14:41:40.781Z,17.53
2022-11-04T14:44:26.332Z,17.50
2022-11-04T14:46:57.477Z,17.48
2022-11-04T14:49:38.808Z,17.45
2022-11-04T14:52:16.501Z,17.44
2022-11-04T14:54:46.578Z,17.40
2022-11-04T14:57:18.175Z,17.39
2022-11-04T14:59:45.112Z,17.38
2022-11-04T15:02:17.903Z,17.39
2022-11-04T15:04:54.005Z,17.41
2022-11-04T15:07:32.749Z,17.43
2022-11-04T15:09:59.712Z,17.42
2022-11-04T15:12:44.685Z,17.41
2022-11-04T15:15:30.905Z,17.40
2022-11-04T15:18:01.178Z,17.39
2022-11-04T15:20:30.682Z,17.39
2022-11-04T15:23:00.636Z,17.36
2022-11-04T15:25:28.165Z,17.36
2022-11-04T15:27:56.366Z,17.35
2022-11-04T15:30:26.449Z,17.30
2022-11-04T15:33:01.165Z,17.29
2022-11-04T15:35:33.211Z,17.30
2022-11-04T15:38:01.829Z,17.30
2022-11-04T15:40:30.587Z,17.29
2022-11-04T15:42:59.541Z,17.27
2022-11-04T15:45:30.309Z,17.25
2022-11-04T15:48:21.598Z,17.18
2022-11-04T15:51:12.055Z,17.14
2022-11-04T15:54:00.763Z,17.05
2022-11-04T15:56:30.440Z,17.02
2022-11-04T15:58:58.769Z,17.01
2022-11-04T16:01:25.994Z,16.99
2022-11-04T16:03:56.290Z,16.99
2022-11-04T16:06:38.732Z,16.90
2022-11-04T16:09:28.709Z,16.77
2022-11-04T16:12:27.653Z,16.65
2022-11-04T16:14:57.521Z,16.56
2022-11-04T16:17:25.516Z,16.48
2022-11-04T16:20:02.115Z,16.42
2022-11-04T16:22:32.924Z,16.39
2022-11-04T16:25:02.569Z,16.36
2022-11-04T16:27:31.970Z,16.31
2022-11-04T16:30:17.034Z,16.22
2022-11-04T16:32:50.881Z,16.19
2022-11-04T16:35:22.046Z,16.18
2022-11-04T16:37:50.674Z,16.14
2022-11-04T16:40:18.329Z,16.12
2022-11-04T16:42:50.536Z,16.11
2022-11-04T16:45:33.076Z,16.11
2022-11-04T16:48:00.223Z,16.12
2022-11-04T16:50:27.366Z,16.12
2022-11-04T16:52:54.267Z,16.11
2022-11-04T16:55:25.428Z,16.09
2022-11-04T16:57:59.108Z,16.06
2022-11-04T17:00:27.320Z,16.03
2022-11-04T17:02:53.906Z,16.01
2022-11-04T17:05:21.743Z,15.98
2022-11-04T17:07:58.850Z,15.94
2022-11-04T17:10:31.376Z,15.89
2022-11-04T17:12:57.865Z,15.84
2022-11-04T17:15:25.858Z,15.77
2022-11-04T17:17:52.322Z,15.72
2022-11-04T17:20:18.981Z,15.67
2022-11-04T17:22:47.227Z,15.62
2022-11-04T17:25:20.632Z,15.55
2022-11-04T17:27:47.729Z,15.52
2022-11-04T17:30:15.035Z,15.51
2022-11-04T17:32:42.301Z,15.50
2022-11-04T17:35:13.846Z,15.48
2022-11-04T17:37:40.735Z,15.46
2022-11-04T17:40:08.413Z,15.43
2022-11-04T17:42:53.555Z,15.41
2022-11-04T17:45:24.132Z,15.41
2022-11-04T17:47:50.581Z,15.38
2022-11-04T17:50:17.176Z,15.36
2022-11-04T17:52:44.519Z,15.32
2022-11-04T17:55:17.926Z,15.27
2022-11-04T17:57:46.298Z,15.24
2022-11-04T18:00:14.544Z,15.23
2022-11-04T18:02:42.697Z,15.19
2022-11-04T18:05:09.640Z,15.16
2022-11-04T18:07:36.239Z,15.12
2022-11-04T18:10:02.725Z,15.08
2022-11-04T18:12:38.203Z,15.04
2022-11-04T18:15:10.212Z,15.02
2022-11-04T18:17:40.979Z,14.99
2022-11-04T18:20:13.905Z,14.97
2022-11-04T18:22:41.426Z,14.93
2022-11-04T18:25:09.995Z,14.91
2022-11-04T18:27:36.807Z,14.89
2022-11-04T18:30:03.779Z,14.86
2022-11-04T18:32:30.271Z,14.83
2022-11-04T18:35:01.062Z,14.81
2022-11-04T18:37:28.678Z,14.79
2022-11-04T18:39:55.172Z,14.76
2022-11-04T18:42:22.153Z,14.74
2022-11-04T18:44:48.735Z,14.73
2022-11-04T18:47:15.549Z,14.72
2022-11-04T18:49:42.066Z,14.73
2022-11-04T18:52:08.758Z,14.70
2022-11-04T18:54:36.253Z,14.68
2022-11-04T18:57:03.974Z,14.68
2022-11-04T18:59:30.538Z,14.67
2022-11-04T19:01:57.061Z,14.68
2022-11-04T19:04:25.618Z,14.67
2022-11-04T19:06:52.137Z,14.67
2022-11-04T19:12:27.640Z,14.65
2022-11-04T19:14:58.238Z,14.60
2022-11-04T19:17:25.196Z,14.57
2022-11-04T19:19:55.676Z,14.56
2022-11-04T19:22:22.200Z,14.54
2022-11-04T19:24:53.390Z,14.53
2022-11-04T19:27:21.598Z,14.51
2022-11-04T19:29:48.448Z,14.48
2022-11-04T19:32:15.096Z,14.48
2022-11-04T19:34:42.631Z,14.47
2022-11-04T19:37:10.607Z,14.46
2022-11-04T19:39:37.817Z,14.42
2022-11-04T19:42:23.276Z,14.35
2022-11-04T19:44:49.967Z,14.26
2022-11-04T19:47:16.430Z,14.22
2022-11-04T19:49:43.155Z,14.20
2022-11-04T19:52:09.760Z,14.16
2022-11-04T19:54:39.856Z,14.09
2022-11-04T19:57:06.918Z,14.04
2022-11-04T19:59:33.488Z,14.00
2022-11-04T20:02:00.217Z,13.95
2022-11-04T20:04:31.193Z,13.87
2022-11-04T20:06:57.704Z,13.77
2022-11-04T20:09:25.897Z,13.66
2022-11-04T20:12:10.653Z,13.58
2022-11-04T20:14:38.811Z,13.49
2022-11-04T20:17:06.707Z,13.41
2022-11-04T20:19:33.529Z,13.34
2022-11-04T20:22:00.078Z,13.31
2022-11-04T20:24:27.558Z,13.28
2022-11-04T20:26:54.060Z,13.25
2022-11-04T20:29:20.747Z,13.24
2022-11-04T20:31:47.477Z,13.23
2022-11-04T20:34:18.274Z,13.24
2022-11-04T20:36:44.746Z,13.25
2022-11-04T20:39:17.159Z,13.26
2022-11-04T20:41:44.951Z,13.25
2022-11-04T20:44:20.369Z,13.24
2022-11-04T20:46:46.832Z,13.25
2022-11-04T20:49:13.646Z,13.27
2022-11-04T20:51:48.694Z,13.27
2022-11-04T20:54:20.862Z,13.26
2022-11-04T20:56:47.541Z,13.25
2022-11-04T20:59:14.435Z,13.23
2022-11-04T21:01:42.972Z,13.24
2022-11-04T21:04:13.359Z,13.25
2022-11-04T21:06:40.039Z,13.24
2022-11-04T21:09:09.272Z,13.22
2022-11-04T21:11:35.910Z,13.22
2022-11-04T21:14:03.351Z,13.21
2022-11-04T21:16:30.724Z,13.18
2022-11-04T21:18:57.847Z,13.14
2022-11-04T21:21:27.240Z,13.13
2022-11-04T21:24:05.479Z,13.08
2022-11-04T21:26:34.892Z,13.05
2022-11-04T21:29:05.019Z,13.01
2022-11-04T21:31:33.247Z,12.92
2022-11-04T21:34:00.301Z,12.83
2022-11-04T21:36:27.221Z,12.76
2022-11-04T21:38:53.889Z,12.70
2022-11-04T21:41:25.120Z,12.62
2022-11-04T21:43:55.484Z,12.55
2022-11-04T21:46:22.951Z,12.49
2022-11-04T21:48:49.756Z,12.43
2022-11-04T21:51:21.332Z,12.38
2022-11-04T21:53:47.892Z,12.34
2022-11-04T21:56:25.956Z,12.29
2022-11-04T21:58:52.853Z,12.25
2022-11-04T22:01:21.740Z,12.21
2022-11-04T22:03:53.598Z,12.16
2022-11-04T22:06:20.676Z,12.13
2022-11-04T22:08:49.699Z,12.09
2022-11-04T22:11:20.487Z,12.06
2022-11-04T22:13:46.964Z,12.02
2022-11-04T22:16:19.641Z,12.00
2022-11-04T22:18:46.891Z,12.00
2022-11-04T22:21:16.451Z,12.01
2022-11-04T22:23:43.415Z,12.01
2022-11-04T22:26:16.471Z,12.04
2022-11-04T22:28:43.018Z,12.08
2022-11-04T22:31:13.425Z,12.13
2022-11-04T22:33:40.533Z,12.16
2022-11-04T22:36:07.657Z,12.20
2022-11-04T22:38:35.767Z,12.20
2022-11-04T22:41:04.807Z,12.21
2022-11-04T22:43:31.944Z,12.20
2022-11-04T22:46:03.283Z,12.22
2022-11-04T22:48:29.767Z,12.22
2022-11-04T22:50:58.891Z,12.23
2022-11-04T22:53:25.806Z,12.23
2022-11-04T22:55:53.604Z,12.23
2022-11-04T22:58:20.136Z,12.23
2022-11-04T23:00:53.545Z,12.24
2022-11-04T23:03:20.188Z,12.23
2022-11-04T23:05:46.713Z,12.19
2022-11-04T23:08:13.188Z,12.16
2022-11-04T23:10:57.916Z,12.14
2022-11-04T23:13:42.772Z,12.13
2022-11-04T23:16:31.347Z,12.14
2022-11-04T23:18:57.810Z,12.13
2022-11-04T23:21:42.592Z,12.12
2022-11-04T23:24:27.836Z,12.12
2022-11-04T23:26:54.415Z,12.12
2022-11-04T23:29:39.424Z,12.14
2022-11-04T23:32:05.973Z,12.17
2022-11-04T23:34:52.954Z,12.18
2022-11-04T23:37:19.591Z,12.20
2022-11-04T23:39:48.311Z,12.22
2022-11-04T23:42:17.875Z,12.23
2022-11-04T23:45:12.192Z,12.25
2022-11-04T23:48:05.090Z,12.28
2022-11-04T23:50:52.548Z,12.31
2022-11-04T23:53:39.109Z,12.31
2022-11-04T23:56:29.627Z,12.30
2022-11-04T23:59:14.604Z,12.29
